Terminal Aerodrome Forecast
Issued by NWS Charleston, WV

Current Version | Previous Version | Graphics & Text | Print | Product List | Glossary On
Versions: 1 2 3 4 5 6 7 8 9 10 11 12 13 14 15 16 17 18 19 20 21 22 23 24 25 26 27
000
FTUS41 KRLX 181700
TAFEKN
TAF
KEKN 181734Z 1818/1918 VRB03KT P6SM OVC060
      TEMPO 1820/1822 4SM -RA OVC019
     FM190000 00000KT 5SM BR BKN015
     FM190600 00000KT 3SM BR BKN018
     FM190700 00000KT 1SM BR BKN002
     FM190900 00000KT 3/4SM BR BKN006
     FM191300 00000KT 4SM BR BKN007
     FM191600 00000KT 3SM HZ BKN021=

USA.gov is the U.S. government's official web portal to all federal, state and local government web resources and services.